Terminal Aerodrome Forecast
Issued by NWS

Home | Current Version | Previous Version | Text Only | Print | Product List | Glossary On
Versions: 1 2 3 4 5 6 7 8 9 10 11 12 13 14 15 16 17 18 19 20 21 22 23 24 25 26 27 28
000
FTUS46 KOTX 212325
TAFCOE
TAF
KCOE 212325Z 2200/2224 VRB03KT P6SM SCT150 OVC200
     FM220300 04005KT P6SM BKN070 OVC100
     FM221000 03011KT P6SM BKN050 OVC080=

USA.gov is the U.S. government's official web portal to all federal, state and local government web resources and services.